Weather at Rabin Medical Center (Beilinson)

Public forecast

Using degrees Celsius for public forecast. Weather courtesy of forecast.io.

Closest aviation weather report (METAR) to Rabin Medical Center (Beilinson)

Closest report is Ben Gurion International Airport, 4.7 nm (8.6 km) SSE.

2024/04/16 15:50 (retrieved 35 minutes ago)

LLBG 161550Z 34005KT CAVOK 26/13 Q1013 NOSIG

Closest aviation forecast (TAF) to Rabin Medical Center (Beilinson)

Closest forecast is Ben Gurion International Airport, 4.7 nm (8.6 km) SSE.

2024/04/16 12:15 (retrieved 4 hours ago)

TAF LLBG 161110Z 1612/1712 32010KT CAVOK BECMG 1615/1617 03005KT BECMG 1620/1622 VRB04KT BECMG 1708/1710 30008KT TX28/1612Z TN16/1704Z